sensor_id;sensor_type;location;lat;lon;timestamp;temperature;humidity
48666;DHT22;34452;50.796;4.994;2023-12-04T00:01:54;3.00;99.90
48666;DHT22;34452;50.796;4.994;2023-12-04T00:04:20;3.00;99.90
48666;DHT22;34452;50.796;4.994;2023-12-04T00:06:46;3.00;99.90
48666;DHT22;34452;50.796;4.994;2023-12-04T00:09:12;3.00;99.90
48666;DHT22;34452;50.796;4.994;2023-12-04T00:11:39;3.00;99.90
48666;DHT22;34452;50.796;4.994;2023-12-04T00:14:04;3.00;99.90
48666;DHT22;34452;50.796;4.994;2023-12-04T00:16:33;3.00;99.90
48666;DHT22;34452;50.796;4.994;2023-12-04T00:19:00;3.00;99.90
48666;DHT22;34452;50.796;4.994;2023-12-04T00:21:26;3.00;99.90
48666;DHT22;34452;50.796;4.994;2023-12-04T00:23:51;3.00;99.90
48666;DHT22;34452;50.796;4.994;2023-12-04T00:26:17;3.00;99.90
48666;DHT22;34452;50.796;4.994;2023-12-04T00:28:43;3.00;99.90
48666;DHT22;34452;50.796;4.994;2023-12-04T00:31:09;3.00;99.90
48666;DHT22;34452;50.796;4.994;2023-12-04T00:33:36;2.90;99.90
48666;DHT22;34452;50.796;4.994;2023-12-04T00:36:02;2.90;99.90
48666;DHT22;34452;50.796;4.994;2023-12-04T00:38:28;2.90;99.90
48666;DHT22;34452;50.796;4.994;2023-12-04T00:40:54;2.90;99.90
48666;DHT22;34452;50.796;4.994;2023-12-04T00:43:19;2.80;99.90
48666;DHT22;34452;50.796;4.994;2023-12-04T00:45:45;2.80;99.90
48666;DHT22;34452;50.796;4.994;2023-12-04T00:48:12;2.80;99.90
48666;DHT22;34452;50.796;4.994;2023-12-04T00:50:37;2.80;99.90
48666;DHT22;34452;50.796;4.994;2023-12-04T00:53:03;2.70;99.90
48666;DHT22;34452;50.796;4.994;2023-12-04T00:55:29;2.70;99.90
48666;DHT22;34452;50.796;4.994;2023-12-04T00:57:55;2.70;99.90
48666;DHT22;34452;50.796;4.994;2023-12-04T01:00:21;2.70;99.90
48666;DHT22;34452;50.796;4.994;2023-12-04T01:02:47;2.70;99.90
48666;DHT22;34452;50.796;4.994;2023-12-04T01:05:13;2.70;99.90
48666;DHT22;34452;50.796;4.994;2023-12-04T01:07:39;2.70;99.90
48666;DHT22;34452;50.796;4.994;2023-12-04T01:10:05;2.70;99.90
48666;DHT22;34452;50.796;4.994;2023-12-04T01:12:31;2.70;99.90
48666;DHT22;34452;50.796;4.994;2023-12-04T01:14:56;2.70;99.90
48666;DHT22;34452;50.796;4.994;2023-12-04T01:17:22;2.70;99.90
48666;DHT22;34452;50.796;4.994;2023-12-04T01:19:48;2.70;99.90
48666;DHT22;34452;50.796;4.994;2023-12-04T01:22:14;2.70;99.90
48666;DHT22;34452;50.796;4.994;2023-12-04T01:24:40;2.60;99.90
48666;DHT22;34452;50.796;4.994;2023-12-04T01:27:06;2.60;99.90
48666;DHT22;34452;50.796;4.994;2023-12-04T01:29:32;2.60;99.90
48666;DHT22;34452;50.796;4.994;2023-12-04T01:31:57;2.60;99.90
48666;DHT22;34452;50.796;4.994;2023-12-04T01:34:23;2.60;99.90
48666;DHT22;34452;50.796;4.994;2023-12-04T01:36:49;2.60;99.90
48666;DHT22;34452;50.796;4.994;2023-12-04T01:39:15;2.70;99.90
48666;DHT22;34452;50.796;4.994;2023-12-04T01:41:40;2.70;99.90
48666;DHT22;34452;50.796;4.994;2023-12-04T01:44:06;2.70;99.90
48666;DHT22;34452;50.796;4.994;2023-12-04T01:46:32;2.70;99.90
48666;DHT22;34452;50.796;4.994;2023-12-04T01:48:58;2.70;99.90
48666;DHT22;34452;50.796;4.994;2023-12-04T01:51:24;2.70;99.90
48666;DHT22;34452;50.796;4.994;2023-12-04T01:53:51;2.70;99.90
48666;DHT22;34452;50.796;4.994;2023-12-04T01:56:18;2.70;99.90
48666;DHT22;34452;50.796;4.994;2023-12-04T01:58:44;2.70;99.90
48666;DHT22;34452;50.796;4.994;2023-12-04T02:01:11;2.70;99.90
48666;DHT22;34452;50.796;4.994;2023-12-04T02:03:37;2.80;99.90
48666;DHT22;34452;50.796;4.994;2023-12-04T02:06:04;2.80;99.90
48666;DHT22;34452;50.796;4.994;2023-12-04T02:08:31;2.80;99.90
48666;DHT22;34452;50.796;4.994;2023-12-04T02:10:57;2.80;99.90
48666;DHT22;34452;50.796;4.994;2023-12-04T02:13:23;2.90;99.90
48666;DHT22;34452;50.796;4.994;2023-12-04T02:15:51;2.80;99.90
48666;DHT22;34452;50.796;4.994;2023-12-04T02:18:19;2.80;99.90
48666;DHT22;34452;50.796;4.994;2023-12-04T02:20:45;2.80;99.90
48666;DHT22;34452;50.796;4.994;2023-12-04T02:23:10;2.80;99.90
48666;DHT22;34452;50.796;4.994;2023-12-04T02:25:36;2.80;99.90
48666;DHT22;34452;50.796;4.994;2023-12-04T02:28:05;2.80;99.90
48666;DHT22;34452;50.796;4.994;2023-12-04T02:30:32;2.70;99.90
48666;DHT22;34452;50.796;4.994;2023-12-04T02:33:04;2.70;99.90
48666;DHT22;34452;50.796;4.994;2023-12-04T02:35:32;2.70;99.90
48666;DHT22;34452;50.796;4.994;2023-12-04T02:38:00;2.70;99.90
48666;DHT22;34452;50.796;4.994;2023-12-04T02:40:27;2.70;99.90
48666;DHT22;34452;50.796;4.994;2023-12-04T02:42:53;2.60;99.90
48666;DHT22;34452;50.796;4.994;2023-12-04T02:45:19;2.60;99.90
48666;DHT22;34452;50.796;4.994;2023-12-04T02:47:44;2.60;99.90
48666;DHT22;34452;50.796;4.994;2023-12-04T02:50:10;2.60;99.90
48666;DHT22;34452;50.796;4.994;2023-12-04T02:52:36;2.60;99.90
48666;DHT22;34452;50.796;4.994;2023-12-04T02:55:02;2.60;99.90
48666;DHT22;34452;50.796;4.994;2023-12-04T02:57:28;2.60;99.90
48666;DHT22;34452;50.796;4.994;2023-12-04T02:59:54;2.60;99.90
48666;DHT22;34452;50.796;4.994;2023-12-04T03:02:20;2.50;99.90
48666;DHT22;34452;50.796;4.994;2023-12-04T03:04:46;2.60;99.90
48666;DHT22;34452;50.796;4.994;2023-12-04T03:07:11;2.60;99.90
48666;DHT22;34452;50.796;4.994;2023-12-04T03:09:37;2.60;99.90
48666;DHT22;34452;50.796;4.994;2023-12-04T03:12:04;2.60;99.90
48666;DHT22;34452;50.796;4.994;2023-12-04T03:14:29;2.60;99.90
48666;DHT22;34452;50.796;4.994;2023-12-04T03:16:55;2.60;99.90
48666;DHT22;34452;50.796;4.994;2023-12-04T03:19:21;2.60;99.90
48666;DHT22;34452;50.796;4.994;2023-12-04T03:21:47;2.60;99.90
48666;DHT22;34452;50.796;4.994;2023-12-04T03:24:12;2.60;99.90
48666;DHT22;34452;50.796;4.994;2023-12-04T03:26:39;2.60;99.90
48666;DHT22;34452;50.796;4.994;2023-12-04T03:29:05;2.60;99.90
48666;DHT22;34452;50.796;4.994;2023-12-04T03:31:31;2.60;99.90
48666;DHT22;34452;50.796;4.994;2023-12-04T03:33:57;2.60;99.90
48666;DHT22;34452;50.796;4.994;2023-12-04T03:36:22;2.60;99.90
48666;DHT22;34452;50.796;4.994;2023-12-04T03:38:48;2.60;99.90
48666;DHT22;34452;50.796;4.994;2023-12-04T03:41:15;2.60;99.90
48666;DHT22;34452;50.796;4.994;2023-12-04T03:43:41;2.60;99.90
48666;DHT22;34452;50.796;4.994;2023-12-04T03:46:07;2.60;99.90
48666;DHT22;34452;50.796;4.994;2023-12-04T03:48:33;2.60;99.90
48666;DHT22;34452;50.796;4.994;2023-12-04T03:50:58;2.60;99.90
48666;DHT22;34452;50.796;4.994;2023-12-04T03:53:28;2.70;99.90
48666;DHT22;34452;50.796;4.994;2023-12-04T03:55:53;2.70;99.90
48666;DHT22;34452;50.796;4.994;2023-12-04T03:58:19;2.70;99.90
48666;DHT22;34452;50.796;4.994;2023-12-04T04:00:45;2.70;99.90
48666;DHT22;34452;50.796;4.994;2023-12-04T04:03:11;2.70;99.90
48666;DHT22;34452;50.796;4.994;2023-12-04T04:05:37;2.70;99.90
48666;DHT22;34452;50.796;4.994;2023-12-04T04:08:03;2.70;99.90
48666;DHT22;34452;50.796;4.994;2023-12-04T04:10:30;2.70;99.90
48666;DHT22;34452;50.796;4.994;2023-12-04T04:12:57;2.80;99.90
48666;DHT22;34452;50.796;4.994;2023-12-04T04:15:23;2.80;99.90
48666;DHT22;34452;50.796;4.994;2023-12-04T04:17:49;2.80;99.90
48666;DHT22;34452;50.796;4.994;2023-12-04T04:20:15;2.80;99.90
48666;DHT22;34452;50.796;4.994;2023-12-04T04:22:40;2.80;99.90
48666;DHT22;34452;50.796;4.994;2023-12-04T04:25:07;2.80;99.90
48666;DHT22;34452;50.796;4.994;2023-12-04T04:27:33;2.80;99.90
48666;DHT22;34452;50.796;4.994;2023-12-04T04:29:59;2.80;99.90
48666;DHT22;34452;50.796;4.994;2023-12-04T04:32:24;2.70;99.90
48666;DHT22;34452;50.796;4.994;2023-12-04T04:34:50;2.70;99.90
48666;DHT22;34452;50.796;4.994;2023-12-04T04:37:16;2.70;99.90
48666;DHT22;34452;50.796;4.994;2023-12-04T04:39:42;2.70;99.90
48666;DHT22;34452;50.796;4.994;2023-12-04T04:42:08;2.70;99.90
48666;DHT22;34452;50.796;4.994;2023-12-04T04:44:33;2.70;99.90
48666;DHT22;34452;50.796;4.994;2023-12-04T04:47:00;2.70;99.90
48666;DHT22;34452;50.796;4.994;2023-12-04T04:49:25;2.70;99.90
48666;DHT22;34452;50.796;4.994;2023-12-04T04:51:51;2.70;99.90
48666;DHT22;34452;50.796;4.994;2023-12-04T04:54:17;2.70;99.90
48666;DHT22;34452;50.796;4.994;2023-12-04T04:56:43;2.70;99.90
48666;DHT22;34452;50.796;4.994;2023-12-04T04:59:08;2.80;99.90
48666;DHT22;34452;50.796;4.994;2023-12-04T05:01:34;2.80;99.90
48666;DHT22;34452;50.796;4.994;2023-12-04T05:04:00;2.80;99.90
48666;DHT22;34452;50.796;4.994;2023-12-04T05:06:26;2.90;99.90
48666;DHT22;34452;50.796;4.994;2023-12-04T05:08:52;2.90;99.90
48666;DHT22;34452;50.796;4.994;2023-12-04T05:11:18;3.00;99.90
48666;DHT22;34452;50.796;4.994;2023-12-04T05:13:47;3.00;99.90
48666;DHT22;34452;50.796;4.994;2023-12-04T05:16:13;3.00;99.90
48666;DHT22;34452;50.796;4.994;2023-12-04T05:18:39;3.00;99.90
48666;DHT22;34452;50.796;4.994;2023-12-04T05:21:11;3.00;99.90
48666;DHT22;34452;50.796;4.994;2023-12-04T05:23:38;3.00;99.90
48666;DHT22;34452;50.796;4.994;2023-12-04T05:26:04;3.00;99.90
48666;DHT22;34452;50.796;4.994;2023-12-04T05:28:30;3.00;99.90
48666;DHT22;34452;50.796;4.994;2023-12-04T05:30:56;2.90;99.90
48666;DHT22;34452;50.796;4.994;2023-12-04T05:33:21;3.00;99.90
48666;DHT22;34452;50.796;4.994;2023-12-04T05:35:48;3.00;99.90
48666;DHT22;34452;50.796;4.994;2023-12-04T05:38:14;3.10;99.90
48666;DHT22;34452;50.796;4.994;2023-12-04T05:40:39;3.10;99.90
48666;DHT22;34452;50.796;4.994;2023-12-04T05:43:05;3.10;99.90
48666;DHT22;34452;50.796;4.994;2023-12-04T05:45:31;3.10;99.90
48666;DHT22;34452;50.796;4.994;2023-12-04T05:47:57;3.20;99.90
48666;DHT22;34452;50.796;4.994;2023-12-04T05:50:22;3.20;99.90
48666;DHT22;34452;50.796;4.994;2023-12-04T05:52:48;3.30;99.90
48666;DHT22;34452;50.796;4.994;2023-12-04T05:55:14;3.30;99.90
48666;DHT22;34452;50.796;4.994;2023-12-04T05:57:40;3.30;99.90
48666;DHT22;34452;50.796;4.994;2023-12-04T06:00:07;3.30;99.90
48666;DHT22;34452;50.796;4.994;2023-12-04T06:02:41;3.30;99.90
48666;DHT22;34452;50.796;4.994;2023-12-04T06:05:08;3.30;99.90
48666;DHT22;34452;50.796;4.994;2023-12-04T06:07:34;3.30;99.90
48666;DHT22;34452;50.796;4.994;2023-12-04T06:10:01;3.30;99.90
48666;DHT22;34452;50.796;4.994;2023-12-04T06:12:26;3.30;99.90
48666;DHT22;34452;50.796;4.994;2023-12-04T06:14:52;3.30;99.90
48666;DHT22;34452;50.796;4.994;2023-12-04T06:17:18;3.30;99.90
48666;DHT22;34452;50.796;4.994;2023-12-04T06:19:45;3.30;99.90
48666;DHT22;34452;50.796;4.994;2023-12-04T06:22:11;3.30;99.90
48666;DHT22;34452;50.796;4.994;2023-12-04T06:24:37;3.30;99.90
48666;DHT22;34452;50.796;4.994;2023-12-04T06:27:03;3.30;99.90
48666;DHT22;34452;50.796;4.994;2023-12-04T06:29:31;3.30;99.90
48666;DHT22;34452;50.796;4.994;2023-12-04T06:31:56;3.40;99.90
48666;DHT22;34452;50.796;4.994;2023-12-04T06:34:23;3.30;99.90
48666;DHT22;34452;50.796;4.994;2023-12-04T06:36:49;3.30;99.90
48666;DHT22;34452;50.796;4.994;2023-12-04T06:39:16;3.40;99.90
48666;DHT22;34452;50.796;4.994;2023-12-04T06:41:43;3.40;99.90
48666;DHT22;34452;50.796;4.994;2023-12-04T06:44:10;3.40;99.90
48666;DHT22;34452;50.796;4.994;2023-12-04T06:46:37;3.40;99.90
48666;DHT22;34452;50.796;4.994;2023-12-04T06:49:05;3.40;99.90
48666;DHT22;34452;50.796;4.994;2023-12-04T06:51:32;3.40;99.90
48666;DHT22;34452;50.796;4.994;2023-12-04T06:53:58;3.40;99.90
48666;DHT22;34452;50.796;4.994;2023-12-04T06:56:24;3.40;99.90
48666;DHT22;34452;50.796;4.994;2023-12-04T06:58:50;3.40;99.90
48666;DHT22;34452;50.796;4.994;2023-12-04T07:01:15;3.50;99.90
48666;DHT22;34452;50.796;4.994;2023-12-04T07:03:41;3.40;99.90
48666;DHT22;34452;50.796;4.994;2023-12-04T07:06:07;3.40;99.90
48666;DHT22;34452;50.796;4.994;2023-12-04T07:08:33;3.50;99.90
48666;DHT22;34452;50.796;4.994;2023-12-04T07:10:59;3.50;99.90
48666;DHT22;34452;50.796;4.994;2023-12-04T07:13:25;3.50;99.90
48666;DHT22;34452;50.796;4.994;2023-12-04T07:15:50;3.50;99.90
48666;DHT22;34452;50.796;4.994;2023-12-04T07:18:16;3.50;99.90
48666;DHT22;34452;50.796;4.994;2023-12-04T07:20:42;3.50;99.90
48666;DHT22;34452;50.796;4.994;2023-12-04T07:23:08;3.50;99.90
48666;DHT22;34452;50.796;4.994;2023-12-04T07:25:34;3.50;99.90
48666;DHT22;34452;50.796;4.994;2023-12-04T07:28:00;3.40;99.90
48666;DHT22;34452;50.796;4.994;2023-12-04T07:30:25;3.50;99.90
48666;DHT22;34452;50.796;4.994;2023-12-04T07:32:52;3.50;99.90
48666;DHT22;34452;50.796;4.994;2023-12-04T07:35:19;3.40;99.90
48666;DHT22;34452;50.796;4.994;2023-12-04T07:37:44;3.40;99.90
48666;DHT22;34452;50.796;4.994;2023-12-04T07:40:10;3.40;99.90
48666;DHT22;34452;50.796;4.994;2023-12-04T07:42:36;3.40;99.90
48666;DHT22;34452;50.796;4.994;2023-12-04T07:45:03;3.40;99.90
48666;DHT22;34452;50.796;4.994;2023-12-04T07:47:29;3.40;99.90
48666;DHT22;34452;50.796;4.994;2023-12-04T07:49:55;3.50;99.90
48666;DHT22;34452;50.796;4.994;2023-12-04T07:52:21;3.50;99.90
48666;DHT22;34452;50.796;4.994;2023-12-04T07:54:46;3.50;99.90
48666;DHT22;34452;50.796;4.994;2023-12-04T07:57:12;3.50;99.90
48666;DHT22;34452;50.796;4.994;2023-12-04T07:59:38;3.50;99.90
48666;DHT22;34452;50.796;4.994;2023-12-04T08:02:04;3.50;99.90
48666;DHT22;34452;50.796;4.994;2023-12-04T08:04:29;3.60;99.90
48666;DHT22;34452;50.796;4.994;2023-12-04T08:06:55;3.50;99.90
48666;DHT22;34452;50.796;4.994;2023-12-04T08:09:22;3.60;99.90
48666;DHT22;34452;50.796;4.994;2023-12-04T08:11:47;3.60;99.90
48666;DHT22;34452;50.796;4.994;2023-12-04T08:14:13;3.60;99.90
48666;DHT22;34452;50.796;4.994;2023-12-04T08:16:39;3.60;99.90
48666;DHT22;34452;50.796;4.994;2023-12-04T08:19:04;3.70;99.90
48666;DHT22;34452;50.796;4.994;2023-12-04T08:21:30;3.70;99.90
48666;DHT22;34452;50.796;4.994;2023-12-04T08:23:57;3.70;99.90
48666;DHT22;34452;50.796;4.994;2023-12-04T08:26:24;3.70;99.90
48666;DHT22;34452;50.796;4.994;2023-12-04T08:28:51;3.80;99.90
48666;DHT22;34452;50.796;4.994;2023-12-04T08:31:17;3.80;99.90
48666;DHT22;34452;50.796;4.994;2023-12-04T08:33:43;3.80;99.90
48666;DHT22;34452;50.796;4.994;2023-12-04T08:36:10;3.90;99.90
48666;DHT22;34452;50.796;4.994;2023-12-04T08:38:36;3.90;99.90
48666;DHT22;34452;50.796;4.994;2023-12-04T08:41:03;3.90;99.90
48666;DHT22;34452;50.796;4.994;2023-12-04T08:43:28;3.90;99.90
48666;DHT22;34452;50.796;4.994;2023-12-04T08:45:54;3.90;99.90
48666;DHT22;34452;50.796;4.994;2023-12-04T08:48:20;4.00;99.90
48666;DHT22;34452;50.796;4.994;2023-12-04T08:50:47;4.00;99.90
48666;DHT22;34452;50.796;4.994;2023-12-04T08:53:13;4.00;99.90
48666;DHT22;34452;50.796;4.994;2023-12-04T08:55:39;4.00;99.90
48666;DHT22;34452;50.796;4.994;2023-12-04T08:58:05;4.10;99.90
48666;DHT22;34452;50.796;4.994;2023-12-04T09:00:32;4.10;99.90
48666;DHT22;34452;50.796;4.994;2023-12-04T09:02:58;4.10;99.90
48666;DHT22;34452;50.796;4.994;2023-12-04T09:05:24;4.20;99.90
48666;DHT22;34452;50.796;4.994;2023-12-04T09:07:49;4.20;99.90
48666;DHT22;34452;50.796;4.994;2023-12-04T09:10:15;4.20;99.90
48666;DHT22;34452;50.796;4.994;2023-12-04T09:12:42;4.20;99.90
48666;DHT22;34452;50.796;4.994;2023-12-04T09:15:08;4.20;99.90
48666;DHT22;34452;50.796;4.994;2023-12-04T09:17:34;4.20;99.90
48666;DHT22;34452;50.796;4.994;2023-12-04T09:20:00;4.20;99.90
48666;DHT22;34452;50.796;4.994;2023-12-04T09:22:26;4.20;99.90
48666;DHT22;34452;50.796;4.994;2023-12-04T09:24:51;4.20;99.90
48666;DHT22;34452;50.796;4.994;2023-12-04T09:27:17;4.20;99.90
48666;DHT22;34452;50.796;4.994;2023-12-04T09:29:43;4.20;99.90
48666;DHT22;34452;50.796;4.994;2023-12-04T09:32:09;4.20;99.90
48666;DHT22;34452;50.796;4.994;2023-12-04T09:34:35;4.30;99.90
48666;DHT22;34452;50.796;4.994;2023-12-04T09:37:01;4.20;99.90
48666;DHT22;34452;50.796;4.994;2023-12-04T09:39:28;4.20;99.90
48666;DHT22;34452;50.796;4.994;2023-12-04T09:41:55;4.20;99.90
48666;DHT22;34452;50.796;4.994;2023-12-04T09:44:22;4.20;99.90
48666;DHT22;34452;50.796;4.994;2023-12-04T09:46:51;4.20;99.90
48666;DHT22;34452;50.796;4.994;2023-12-04T09:49:17;4.20;99.90
48666;DHT22;34452;50.796;4.994;2023-12-04T09:51:44;4.20;99.90
48666;DHT22;34452;50.796;4.994;2023-12-04T09:54:11;4.20;99.90
48666;DHT22;34452;50.796;4.994;2023-12-04T09:56:38;4.20;99.90
48666;DHT22;34452;50.796;4.994;2023-12-04T09:59:05;4.10;99.90
48666;DHT22;34452;50.796;4.994;2023-12-04T10:01:31;4.10;99.90
48666;DHT22;34452;50.796;4.994;2023-12-04T10:03:58;4.10;99.90
48666;DHT22;34452;50.796;4.994;2023-12-04T10:06:28;4.00;99.90
48666;DHT22;34452;50.796;4.994;2023-12-04T10:08:57;4.00;99.90
48666;DHT22;34452;50.796;4.994;2023-12-04T10:11:24;4.00;99.90
48666;DHT22;34452;50.796;4.994;2023-12-04T10:13:50;4.10;99.90
48666;DHT22;34452;50.796;4.994;2023-12-04T10:16:35;4.10;99.90
48666;DHT22;34452;50.796;4.994;2023-12-04T10:21:52;4.10;99.90
48666;DHT22;34452;50.796;4.994;2023-12-04T10:26:52;4.10;99.90
48666;DHT22;34452;50.796;4.994;2023-12-04T10:29:18;4.20;99.90
48666;DHT22;34452;50.796;4.994;2023-12-04T10:31:44;4.20;99.90
48666;DHT22;34452;50.796;4.994;2023-12-04T10:34:10;4.30;99.90
48666;DHT22;34452;50.796;4.994;2023-12-04T10:36:36;4.30;99.90
48666;DHT22;34452;50.796;4.994;2023-12-04T10:39:02;4.30;99.90
48666;DHT22;34452;50.796;4.994;2023-12-04T10:41:31;4.30;99.90
48666;DHT22;34452;50.796;4.994;2023-12-04T10:43:57;4.30;99.90
48666;DHT22;34452;50.796;4.994;2023-12-04T10:46:27;4.30;99.90
48666;DHT22;34452;50.796;4.994;2023-12-04T10:48:54;4.40;99.90
48666;DHT22;34452;50.796;4.994;2023-12-04T10:51:20;4.50;99.90
48666;DHT22;34452;50.796;4.994;2023-12-04T10:53:49;4.60;99.90
48666;DHT22;34452;50.796;4.994;2023-12-04T10:56:23;4.70;99.90
48666;DHT22;34452;50.796;4.994;2023-12-04T10:58:51;4.70;99.90
48666;DHT22;34452;50.796;4.994;2023-12-04T11:01:19;4.80;99.90
48666;DHT22;34452;50.796;4.994;2023-12-04T11:03:53;4.80;99.90
48666;DHT22;34452;50.796;4.994;2023-12-04T11:06:22;4.70;99.90
48666;DHT22;34452;50.796;4.994;2023-12-04T11:08:49;4.80;99.90
48666;DHT22;34452;50.796;4.994;2023-12-04T11:11:22;4.80;99.90
48666;DHT22;34452;50.796;4.994;2023-12-04T11:13:54;4.80;99.90
48666;DHT22;34452;50.796;4.994;2023-12-04T11:16:45;4.80;99.90
48666;DHT22;34452;50.796;4.994;2023-12-04T11:19:39;4.80;99.90
48666;DHT22;34452;50.796;4.994;2023-12-04T11:22:07;4.90;99.90
48666;DHT22;34452;50.796;4.994;2023-12-04T11:24:35;4.90;99.90
48666;DHT22;34452;50.796;4.994;2023-12-04T11:27:02;4.90;99.90
48666;DHT22;34452;50.796;4.994;2023-12-04T11:29:30;4.80;99.90
48666;DHT22;34452;50.796;4.994;2023-12-04T11:31:56;4.80;99.90
48666;DHT22;34452;50.796;4.994;2023-12-04T11:34:22;4.80;99.90
48666;DHT22;34452;50.796;4.994;2023-12-04T11:36:50;4.90;99.90
48666;DHT22;34452;50.796;4.994;2023-12-04T11:39:18;4.80;99.90
48666;DHT22;34452;50.796;4.994;2023-12-04T11:41:45;4.80;99.90
48666;DHT22;34452;50.796;4.994;2023-12-04T11:44:11;4.90;99.90
48666;DHT22;34452;50.796;4.994;2023-12-04T11:46:41;4.90;99.90
48666;DHT22;34452;50.796;4.994;2023-12-04T11:49:29;4.90;99.90
48666;DHT22;34452;50.796;4.994;2023-12-04T11:51:56;4.80;99.90
48666;DHT22;34452;50.796;4.994;2023-12-04T11:54:22;4.80;99.90
48666;DHT22;34452;50.796;4.994;2023-12-04T11:57:20;4.80;99.90
48666;DHT22;34452;50.796;4.994;2023-12-04T11:59:50;4.90;99.90
48666;DHT22;34452;50.796;4.994;2023-12-04T12:02:17;4.90;99.90
48666;DHT22;34452;50.796;4.994;2023-12-04T12:04:43;4.90;99.90
48666;DHT22;34452;50.796;4.994;2023-12-04T12:07:11;5.00;99.90
48666;DHT22;34452;50.796;4.994;2023-12-04T12:09:36;5.10;99.90
48666;DHT22;34452;50.796;4.994;2023-12-04T12:12:03;5.20;99.90
48666;DHT22;34452;50.796;4.994;2023-12-04T12:14:30;5.10;99.90
48666;DHT22;34452;50.796;4.994;2023-12-04T12:16:59;5.10;99.90
48666;DHT22;34452;50.796;4.994;2023-12-04T12:19:25;5.20;99.90
48666;DHT22;34452;50.796;4.994;2023-12-04T12:21:51;5.20;99.90
48666;DHT22;34452;50.796;4.994;2023-12-04T12:24:18;5.20;99.90
48666;DHT22;34452;50.796;4.994;2023-12-04T12:26:44;5.20;99.90
48666;DHT22;34452;50.796;4.994;2023-12-04T12:29:11;5.10;99.90
48666;DHT22;34452;50.796;4.994;2023-12-04T12:31:37;5.10;99.90
48666;DHT22;34452;50.796;4.994;2023-12-04T12:34:03;5.10;99.90
48666;DHT22;34452;50.796;4.994;2023-12-04T12:36:29;5.10;99.90
48666;DHT22;34452;50.796;4.994;2023-12-04T12:39:01;5.10;99.90
48666;DHT22;34452;50.796;4.994;2023-12-04T12:41:29;5.10;99.90
48666;DHT22;34452;50.796;4.994;2023-12-04T12:43:55;5.10;99.90
48666;DHT22;34452;50.796;4.994;2023-12-04T12:46:22;5.10;99.90
48666;DHT22;34452;50.796;4.994;2023-12-04T12:48:48;5.10;99.90
48666;DHT22;34452;50.796;4.994;2023-12-04T12:51:14;5.10;99.90
48666;DHT22;34452;50.796;4.994;2023-12-04T12:53:40;5.10;99.90
48666;DHT22;34452;50.796;4.994;2023-12-04T12:56:06;5.10;99.90
48666;DHT22;34452;50.796;4.994;2023-12-04T12:58:33;5.10;99.90
48666;DHT22;34452;50.796;4.994;2023-12-04T13:01:00;5.10;99.90
48666;DHT22;34452;50.796;4.994;2023-12-04T13:03:27;5.20;99.90
48666;DHT22;34452;50.796;4.994;2023-12-04T13:05:53;5.20;99.90
48666;DHT22;34452;50.796;4.994;2023-12-04T13:08:19;5.20;99.90
48666;DHT22;34452;50.796;4.994;2023-12-04T13:10:45;5.30;99.90
48666;DHT22;34452;50.796;4.994;2023-12-04T13:13:11;5.30;99.90
48666;DHT22;34452;50.796;4.994;2023-12-04T13:15:37;5.20;99.90
48666;DHT22;34452;50.796;4.994;2023-12-04T13:18:03;5.20;99.90
48666;DHT22;34452;50.796;4.994;2023-12-04T13:20:29;5.20;99.90
48666;DHT22;34452;50.796;4.994;2023-12-04T13:22:55;5.20;99.90
48666;DHT22;34452;50.796;4.994;2023-12-04T13:25:21;5.20;99.90
48666;DHT22;34452;50.796;4.994;2023-12-04T13:27:48;5.20;99.90
48666;DHT22;34452;50.796;4.994;2023-12-04T13:30:14;5.20;99.90
48666;DHT22;34452;50.796;4.994;2023-12-04T13:32:40;5.20;99.90
48666;DHT22;34452;50.796;4.994;2023-12-04T13:35:06;5.20;99.90
48666;DHT22;34452;50.796;4.994;2023-12-04T13:37:36;5.20;99.90
48666;DHT22;34452;50.796;4.994;2023-12-04T13:40:04;5.20;99.90
48666;DHT22;34452;50.796;4.994;2023-12-04T13:42:34;5.20;99.90
48666;DHT22;34452;50.796;4.994;2023-12-04T13:45:19;5.20;99.90
48666;DHT22;34452;50.796;4.994;2023-12-04T13:47:47;5.20;99.90
48666;DHT22;34452;50.796;4.994;2023-12-04T13:50:13;5.30;99.90
48666;DHT22;34452;50.796;4.994;2023-12-04T13:52:39;5.30;99.90
48666;DHT22;34452;50.796;4.994;2023-12-04T13:55:10;5.30;99.90
48666;DHT22;34452;50.796;4.994;2023-12-04T13:57:47;5.20;99.90
48666;DHT22;34452;50.796;4.994;2023-12-04T14:00:25;5.20;99.90
48666;DHT22;34452;50.796;4.994;2023-12-04T14:02:51;5.20;99.90
48666;DHT22;34452;50.796;4.994;2023-12-04T14:05:26;5.20;99.90
48666;DHT22;34452;50.796;4.994;2023-12-04T14:07:51;5.20;99.90
48666;DHT22;34452;50.796;4.994;2023-12-04T14:10:18;5.10;99.90
48666;DHT22;34452;50.796;4.994;2023-12-04T14:12:44;5.10;99.90
48666;DHT22;34452;50.796;4.994;2023-12-04T14:15:10;5.10;99.90
48666;DHT22;34452;50.796;4.994;2023-12-04T14:17:35;5.10;99.90
48666;DHT22;34452;50.796;4.994;2023-12-04T14:20:05;5.10;99.90
48666;DHT22;34452;50.796;4.994;2023-12-04T14:22:40;5.00;99.90
48666;DHT22;34452;50.796;4.994;2023-12-04T14:25:07;5.00;99.90
48666;DHT22;34452;50.796;4.994;2023-12-04T14:27:34;5.00;99.90
48666;DHT22;34452;50.796;4.994;2023-12-04T14:30:01;5.00;99.90
48666;DHT22;34452;50.796;4.994;2023-12-04T14:32:29;5.00;99.90
48666;DHT22;34452;50.796;4.994;2023-12-04T14:34:55;5.10;99.90
48666;DHT22;34452;50.796;4.994;2023-12-04T14:37:20;5.00;99.90
48666;DHT22;34452;50.796;4.994;2023-12-04T14:39:46;5.00;99.90
48666;DHT22;34452;50.796;4.994;2023-12-04T14:42:12;5.00;99.90
48666;DHT22;34452;50.796;4.994;2023-12-04T14:44:38;5.10;99.90
48666;DHT22;34452;50.796;4.994;2023-12-04T14:47:04;5.10;99.90
48666;DHT22;34452;50.796;4.994;2023-12-04T14:49:31;5.10;99.90
48666;DHT22;34452;50.796;4.994;2023-12-04T14:51:57;5.10;99.90
48666;DHT22;34452;50.796;4.994;2023-12-04T14:54:25;5.10;99.90
48666;DHT22;34452;50.796;4.994;2023-12-04T14:57:11;5.10;99.90
48666;DHT22;34452;50.796;4.994;2023-12-04T14:59:56;5.10;99.90
48666;DHT22;34452;50.796;4.994;2023-12-04T15:02:40;5.10;99.90
48666;DHT22;34452;50.796;4.994;2023-12-04T15:05:12;5.10;99.90
48666;DHT22;34452;50.796;4.994;2023-12-04T15:07:58;5.10;99.90
48666;DHT22;34452;50.796;4.994;2023-12-04T15:10:26;5.10;99.90
48666;DHT22;34452;50.796;4.994;2023-12-04T15:13:11;5.10;99.90
48666;DHT22;34452;50.796;4.994;2023-12-04T15:15:57;5.10;99.90
48666;DHT22;34452;50.796;4.994;2023-12-04T15:18:41;5.10;99.90
48666;DHT22;34452;50.796;4.994;2023-12-04T15:21:18;5.10;99.90
48666;DHT22;34452;50.796;4.994;2023-12-04T15:23:44;5.10;99.90
48666;DHT22;34452;50.796;4.994;2023-12-04T15:26:10;5.20;99.90
48666;DHT22;34452;50.796;4.994;2023-12-04T15:28:39;5.20;99.90
48666;DHT22;34452;50.796;4.994;2023-12-04T15:31:05;5.20;99.90
48666;DHT22;34452;50.796;4.994;2023-12-04T15:33:31;5.20;99.90
48666;DHT22;34452;50.796;4.994;2023-12-04T15:35:56;5.20;99.90
48666;DHT22;34452;50.796;4.994;2023-12-04T15:38:23;5.20;99.90
48666;DHT22;34452;50.796;4.994;2023-12-04T15:40:49;5.20;99.90
48666;DHT22;34452;50.796;4.994;2023-12-04T15:43:16;5.20;99.90
48666;DHT22;34452;50.796;4.994;2023-12-04T15:45:41;5.20;99.90
48666;DHT22;34452;50.796;4.994;2023-12-04T15:48:08;5.20;99.90
48666;DHT22;34452;50.796;4.994;2023-12-04T15:50:35;5.20;99.90